Time;durP1;ratioP1;P1;durP2;ratioP2;P2;SDS_P1;SDS_P2;PMS_P1;PMS_P2;Temp;Humidity;BMP_temperature;BMP_pressure;BME280_temperature;BME280_humidity;BME280_pressure;Samples;Min_cycle;Max_cycle;Signal;HPM_P1;HPM_P2
2022/01/04 00:01:49;;;;;;;;;5.33;5.33;;;;;13.70;76.53;100022.13;5055123;28;45821;-72
2022/01/04 00:04:14;;;;;;;;;7.00;7.00;;;;;13.66;76.58;100009.81;5054798;28;45796;-71
2022/01/04 00:06:39;;;;;;;;;7.67;6.33;;;;;13.69;76.71;100015.03;5055693;28;53924;-72
2022/01/04 00:09:07;;;;;;;;;11.00;8.00;;;;;13.69;76.45;100009.72;5055989;28;45798;-72
2022/01/04 00:11:56;;;;;;;;;9.67;7.00;;;;;13.71;76.41;100011.47;5055653;28;45623;-72
2022/01/04 00:14:18;;;;;;;;;10.00;8.33;;;;;13.61;76.46;99989.50;5054484;28;45325;-71
2022/01/04 00:16:43;;;;;;;;;8.33;8.33;;;;;13.66;76.70;99983.28;5055527;28;50787;-71
2022/01/04 00:19:09;;;;;;;;;11.67;7.33;;;;;13.68;76.61;99977.03;5054620;28;45694;-74
2022/01/04 00:21:34;;;;;;;;;15.00;9.33;;;;;13.68;76.86;99971.72;5053291;28;58722;-71
2022/01/04 00:24:00;;;;;;;;;11.00;9.00;;;;;13.71;77.04;99976.13;5054682;28;45344;-71
2022/01/04 00:26:26;;;;;;;;;11.67;10.67;;;;;13.73;76.97;99975.19;5055673;28;45414;-70
2022/01/04 00:28:51;;;;;;;;;7.33;6.67;;;;;13.70;76.92;99964.63;5053868;28;46299;-72
2022/01/04 00:31:17;;;;;;;;;7.00;6.00;;;;;13.61;76.71;99944.44;5055485;28;45272;-71
2022/01/04 00:33:42;;;;;;;;;3.33;3.33;;;;;13.67;76.63;99948.75;5053405;28;45820;-71
2022/01/04 00:36:07;;;;;;;;;4.33;4.00;;;;;13.65;76.94;99939.09;5054064;28;54512;-72
2022/01/04 00:38:33;;;;;;;;;5.33;5.33;;;;;13.53;76.69;99918.91;5053466;28;57935;-74
2022/01/04 00:40:58;;;;;;;;;5.00;5.00;;;;;13.60;76.87;99931.19;5036731;28;60530;-72
2022/01/04 00:43:24;;;;;;;;;4.33;4.33;;;;;13.61;77.00;99928.50;5055165;28;47126;-71
2022/01/04 00:45:49;;;;;;;;;4.00;4.00;;;;;13.53;78.61;99905.66;5054608;28;52223;-71
2022/01/04 00:50:40;;;;;;;;;6.00;4.00;;;;;13.48;77.24;99900.44;5075456;28;45271;-72
2022/01/04 00:53:06;;;;;;;;;4.00;4.00;;;;;13.53;77.49;99908.28;5053764;28;46984;-71
2022/01/04 00:55:32;;;;;;;;;7.67;6.00;;;;;13.48;77.10;99900.44;5053587;28;45491;-71
2022/01/04 00:57:57;;;;;;;;;5.00;3.33;;;;;13.51;77.11;99903.03;5056651;28;46479;-72
2022/01/04 01:00:23;;;;;;;;;6.00;6.00;;;;;13.48;77.44;99895.13;5057995;28;49055;-73
2022/01/04 01:02:48;;;;;;;;;7.00;6.00;;;;;13.47;77.63;99896.00;5074847;28;45492;-73
2022/01/04 01:05:14;;;;;;;;;5.67;5.33;;;;;13.43;77.59;99891.69;5037500;28;47459;-72
2022/01/04 01:07:40;;;;;;;;;6.33;6.00;;;;;13.43;77.88;99880.19;5070261;28;45809;-71
2022/01/04 01:12:48;;;;;;;;;5.00;4.00;;;;;13.33;77.39;99860.91;5061706;28;45599;-74
2022/01/04 01:15:13;;;;;;;;;4.00;4.00;;;;;13.28;77.50;99849.50;5060789;28;45884;-71
2022/01/04 01:17:39;;;;;;;;;9.67;5.00;;;;;13.35;77.38;99853.78;5078141;28;58714;-71
2022/01/04 01:20:05;;;;;;;;;4.00;4.00;;;;;13.27;77.51;99845.97;5060301;28;45380;-71
2022/01/04 01:22:31;;;;;;;;;2.00;2.00;;;;;13.33;79.04;99847.66;5043524;28;46045;-72
2022/01/04 01:24:56;;;;;;;;;3.00;2.00;;;;;13.30;79.21;99850.34;5078665;28;54795;-71
2022/01/04 01:27:21;;;;;;;;;2.00;2.00;;;;;13.28;79.18;99854.81;5059491;28;56119;-71
2022/01/04 01:29:47;;;;;;;;;2.00;2.00;;;;;13.24;79.31;99845.13;5077628;28;61282;-71
2022/01/04 01:32:12;;;;;;;;;2.00;2.00;;;;;13.22;79.34;99839.88;5059501;28;51516;-72
2022/01/04 01:34:38;;;;;;;;;2.00;2.00;;;;;13.17;79.21;99831.06;5078714;28;45557;-71
2022/01/04 01:37:03;;;;;;;;;3.00;3.00;;;;;13.18;79.26;99824.00;5059770;28;45522;-75
2022/01/04 01:39:29;;;;;;;;;3.00;3.00;;;;;13.15;78.27;99824.91;5078503;28;45519;-72
2022/01/04 01:41:54;;;;;;;;;1.00;1.00;;;;;13.06;77.69;99796.78;5056575;28;48642;-71
2022/01/04 01:44:20;;;;;;;;;2.00;1.00;;;;;13.03;77.75;99794.19;5074105;28;45463;-73
2022/01/04 01:46:45;;;;;;;;;2.00;1.00;;;;;13.10;77.56;99806.44;5055249;28;45524;-72
2022/01/04 01:49:11;;;;;;;;;1.00;1.00;;;;;13.07;78.43;99793.25;5078444;28;45338;-73
2022/01/04 01:51:36;;;;;;;;;1.00;1.00;;;;;13.03;79.88;99777.41;5059132;28;55368;-71
2022/01/04 01:54:01;;;;;;;;;0.33;0.33;;;;;12.96;79.54;99773.13;5043752;28;52501;-72
2022/01/04 01:56:29;;;;;;;;;1.00;1.00;;;;;12.99;80.21;99768.63;5077653;28;60379;-72
2022/01/04 01:58:55;;;;;;;;;1.33;1.33;;;;;12.99;80.23;99778.34;5043576;28;45382;-71
2022/01/04 02:01:21;;;;;;;;;1.67;1.67;;;;;12.96;80.42;99779.28;5077619;28;45437;-71
2022/01/04 02:03:46;;;;;;;;;2.00;2.00;;;;;12.84;80.61;99753.84;5059377;28;45610;-72
2022/01/04 02:06:11;;;;;;;;;2.00;2.00;;;;;12.84;80.37;99772.41;5078623;28;46828;-73
2022/01/04 02:08:37;;;;;;;;;4.33;3.00;;;;;12.89;94.90;99790.88;5056488;28;58552;-71
2022/01/04 02:11:02;;;;;;;;;4.00;2.00;;;;;12.88;96.49;99781.16;5076720;28;45925;-74
2022/01/04 02:13:28;;;;;;;;;6.00;3.00;;;;;12.88;96.81;99764.38;5077616;28;45407;-71
2022/01/04 02:15:54;;;;;;;;;2.00;2.00;;;;;12.85;83.85;99749.44;5058828;28;46552;-71
2022/01/04 02:18:19;;;;;;;;;2.67;1.00;;;;;12.84;81.94;99745.91;5077869;28;45331;-71
2022/01/04 02:20:45;;;;;;;;;0.00;0.00;;;;;12.85;81.46;99738.84;5076624;28;51820;-72
2022/01/04 02:23:10;;;;;;;;;0.00;0.00;;;;;12.80;80.89;99751.28;5059820;28;45536;-71
2022/01/04 02:25:36;;;;;;;;;0.00;0.00;;;;;12.77;80.56;99749.53;5077184;28;49736;-72
2022/01/04 02:28:01;;;;;;;;;0.00;0.00;;;;;12.75;80.86;99742.53;5059759;28;45449;-71
2022/01/04 02:30:27;;;;;;;;;0.00;0.00;;;;;12.72;79.99;99740.78;5042851;28;45297;-71
2022/01/04 02:32:52;;;;;;;;;0.00;0.00;;;;;12.67;80.56;99733.81;5077554;28;45582;-73
2022/01/04 02:35:22;;;;;;;;;0.00;0.00;;;;;12.68;82.58;99725.00;5059562;28;46634;-72
2022/01/04 02:37:47;;;;;;;;;0.00;0.00;;;;;12.66;82.89;99713.53;5077013;28;45433;-73
2022/01/04 02:40:12;;;;;;;;;0.00;0.00;;;;;12.67;83.07;99721.44;5078044;28;45383;-73
2022/01/04 02:42:38;;;;;;;;;0.00;0.00;;;;;12.67;82.96;99715.25;5076638;28;48353;-73
2022/01/04 02:45:04;;;;;;;;;0.00;0.00;;;;;12.66;82.96;99706.44;5059285;28;46800;-72
2022/01/04 02:47:29;;;;;;;;;0.00;0.00;;;;;12.64;85.07;99696.78;5039005;28;45545;-72
2022/01/04 02:49:55;;;;;;;;;1.00;0.00;;;;;12.54;85.91;99675.75;5074944;28;49794;-71
2022/01/04 02:52:21;;;;;;;;;0.00;0.00;;;;;12.58;81.00;99672.16;5039426;28;45366;-72
2022/01/04 02:54:46;;;;;;;;;0.00;0.00;;;;;12.65;79.27;99678.22;5072955;28;59483;-72
2022/01/04 02:57:11;;;;;;;;;0.00;0.00;;;;;12.65;78.85;99677.34;5076683;28;45900;-72
2022/01/04 02:59:37;;;;;;;;;0.67;0.00;;;;;12.63;78.56;99657.97;5059111;28;51922;-72
2022/01/04 03:02:03;;;;;;;;;0.67;0.67;;;;;12.62;78.33;99664.16;5033401;28;54695;-71
2022/01/04 03:04:29;;;;;;;;;0.00;0.00;;;;;12.59;78.22;99652.72;5059092;28;47082;-72
2022/01/04 03:06:54;;;;;;;;;1.00;1.00;;;;;12.58;78.05;99644.81;5077256;28;45476;-73
2022/01/04 03:09:19;;;;;;;;;0.00;0.00;;;;;12.62;77.94;99642.97;5058822;28;53670;-74
2022/01/04 03:11:45;;;;;;;;;1.00;1.00;;;;;12.59;77.72;99646.56;5058701;28;45539;-71
2022/01/04 03:14:10;;;;;;;;;0.00;0.00;;;;;12.62;77.50;99641.19;5076569;28;46685;-73
2022/01/04 03:16:36;;;;;;;;;1.00;1.00;;;;;12.64;77.34;99638.53;5058821;28;45568;-73
2022/01/04 03:19:07;;;;;;;;;1.00;1.00;;;;;12.64;77.35;99631.47;5077490;28;45597;-74
2022/01/04 03:21:34;;;;;;;;;0.33;0.33;;;;;12.63;77.32;99629.72;5044089;28;45506;-72
2022/01/04 03:23:59;;;;;;;;;2.33;1.00;;;;;12.60;77.64;99624.47;5058424;28;45917;-72
2022/01/04 03:26:25;;;;;;;;;1.00;1.00;;;;;12.52;77.70;99611.34;5057673;28;45470;-71
2022/01/04 03:28:50;;;;;;;;;1.00;1.00;;;;;12.57;77.23;99628.03;5041364;28;57350;-72
2022/01/04 03:31:15;;;;;;;;;1.00;1.00;;;;;12.46;77.39;99607.91;5075364;28;47623;-72
2022/01/04 03:33:41;;;;;;;;;1.00;1.00;;;;;12.55;77.63;99616.59;5075651;28;58518;-73
2022/01/04 03:36:06;;;;;;;;;0.67;0.67;;;;;12.53;77.58;99613.09;5075976;28;59539;-71
2022/01/04 03:38:32;;;;;;;;;1.00;0.00;;;;;12.54;77.41;99617.50;5076017;28;45358;-71
2022/01/04 03:40:57;;;;;;;;;0.00;0.00;;;;;12.50;77.42;99609.63;5076873;28;46108;-74
2022/01/04 03:43:22;;;;;;;;;0.67;0.67;;;;;12.53;77.45;99609.59;5057805;28;59145;-71
2022/01/04 03:45:48;;;;;;;;;0.00;0.00;;;;;12.52;77.56;99614.00;5057266;28;57605;-72
2022/01/04 03:48:14;;;;;;;;;0.00;0.00;;;;;12.49;77.79;99611.41;5041045;28;45450;-72
2022/01/04 03:50:40;;;;;;;;;0.00;0.00;;;;;12.42;77.86;99599.16;5057754;28;52800;-71
2022/01/04 03:53:05;;;;;;;;;0.00;0.00;;;;;12.48;77.71;99612.31;5040591;28;48610;-71
2022/01/04 03:55:31;;;;;;;;;0.00;0.00;;;;;12.42;77.69;99595.66;5058689;28;45345;-72
2022/01/04 03:57:56;;;;;;;;;0.00;0.00;;;;;12.36;77.92;99588.69;5040496;28;51857;-71
2022/01/04 04:00:21;;;;;;;;;0.00;0.00;;;;;12.49;77.68;99605.22;5075665;28;46234;-72
2022/01/04 04:02:47;;;;;;;;;0.00;0.00;;;;;12.41;77.71;99592.13;5075512;28;56783;-72
2022/01/04 04:05:13;;;;;;;;;0.00;0.00;;;;;12.48;77.99;99600.84;5058326;28;45280;-74
2022/01/04 04:07:38;;;;;;;;;1.00;0.00;;;;;12.38;77.71;99586.88;5076986;28;45327;-70
2022/01/04 04:10:04;;;;;;;;;0.00;0.00;;;;;12.45;77.96;99601.75;5057487;28;45886;-74
2022/01/04 04:12:29;;;;;;;;;0.00;0.00;;;;;12.44;77.97;99601.78;5076466;28;46442;-71
2022/01/04 04:14:58;;;;;;;;;0.00;0.00;;;;;12.41;77.68;99604.47;5075256;28;52269;-71
2022/01/04 04:17:23;;;;;;;;;0.00;0.00;;;;;12.45;77.72;99604.41;5075607;28;45475;-72
2022/01/04 04:19:49;;;;;;;;;0.00;0.00;;;;;12.46;77.61;99611.44;5075928;28;54380;-71
2022/01/04 04:22:14;;;;;;;;;0.00;0.00;;;;;12.46;77.60;99605.28;5056698;28;45799;-71
2022/01/04 04:24:40;;;;;;;;;0.00;0.00;;;;;12.45;77.70;99608.81;5057746;28;45167;-72
2022/01/04 04:27:05;;;;;;;;;0.33;0.00;;;;;12.44;77.91;99604.44;5056897;28;45582;-74
2022/01/04 04:29:32;;;;;;;;;0.00;0.00;;;;;12.43;77.39;99600.91;5038187;28;45403;-72
2022/01/04 04:31:57;;;;;;;;;0.00;0.00;;;;;12.44;77.45;99610.59;5072408;28;46670;-71
2022/01/04 04:34:23;;;;;;;;;1.00;0.00;;;;;12.39;79.86;99611.56;5074964;28;57190;-73
2022/01/04 04:36:48;;;;;;;;;0.00;0.00;;;;;12.42;80.28;99616.84;5074580;28;55359;-73
2022/01/04 04:39:14;;;;;;;;;0.00;0.00;;;;;12.41;80.13;99605.38;5057652;28;45331;-71
2022/01/04 04:41:39;;;;;;;;;0.00;0.00;;;;;12.39;79.85;99608.94;5075266;28;48210;-72
2022/01/04 04:44:04;;;;;;;;;0.00;0.00;;;;;12.43;80.01;99629.16;5057314;28;60065;-71
2022/01/04 04:46:30;;;;;;;;;0.00;0.00;;;;;12.41;83.54;99628.28;5075373;28;45477;-72
2022/01/04 04:48:55;;;;;;;;;0.00;0.00;;;;;12.38;80.26;99609.81;5060171;28;46162;-71
2022/01/04 04:51:21;;;;;;;;;0.00;0.00;;;;;12.31;79.72;99609.94;5079384;28;47265;-72
2022/01/04 04:53:46;;;;;;;;;0.00;0.00;;;;;12.38;79.81;99625.72;5078523;28;56747;-72
2022/01/04 04:56:11;;;;;;;;;0.00;0.00;;;;;12.37;79.71;99630.13;5079245;28;52938;-71
2022/01/04 04:58:37;;;;;;;;;0.00;0.00;;;;;12.36;78.48;99633.69;5078892;28;45366;-71
2022/01/04 05:01:02;;;;;;;;;0.00;0.00;;;;;12.38;77.71;99641.59;5060396;28;63846;-72
2022/01/04 05:03:28;;;;;;;;;0.00;0.00;;;;;12.37;77.69;99634.56;5077983;28;45310;-73
2022/01/04 05:05:53;;;;;;;;;0.00;0.00;;;;;12.36;77.42;99636.34;5061290;28;46559;-72
2022/01/04 05:08:18;;;;;;;;;0.00;0.00;;;;;12.37;76.99;99648.66;5061332;28;47529;-72
2022/01/04 05:10:44;;;;;;;;;0.00;0.00;;;;;12.30;76.16;99647.88;5077750;28;62335;-72
2022/01/04 05:13:09;;;;;;;;;0.00;0.00;;;;;12.31;76.71;99646.13;5060233;28;61124;-71
2022/01/04 05:15:35;;;;;;;;;0.00;0.00;;;;;12.32;76.79;99647.84;5061400;28;45220;-73
2022/01/04 05:18:00;;;;;;;;;0.00;0.00;;;;;12.32;76.54;99653.16;5060051;28;45539;-72
2022/01/04 05:20:25;;;;;;;;;0.00;0.00;;;;;12.32;77.39;99653.16;5060437;28;60627;-72
2022/01/04 05:22:51;;;;;;;;;0.00;0.00;;;;;12.32;77.86;99653.16;5078032;28;46396;-71
2022/01/04 05:25:16;;;;;;;;;0.00;0.00;;;;;12.18;78.44;99629.53;5072727;28;56487;-73
2022/01/04 05:27:41;;;;;;;;;0.00;0.00;;;;;12.28;78.46;99654.97;5056058;28;50029;-72
2022/01/04 05:30:07;;;;;;;;;0.00;0.00;;;;;12.19;77.71;99640.97;5077250;28;61256;-71
2022/01/04 05:32:33;;;;;;;;;0.00;0.00;;;;;12.18;77.25;99640.09;5053361;28;45453;-73
2022/01/04 05:34:58;;;;;;;;;0.00;0.00;;;;;12.25;77.15;99647.09;5062640;28;51769;-72
2022/01/04 05:37:23;;;;;;;;;0.00;0.00;;;;;12.24;77.10;99655.03;5063666;28;48539;-74
2022/01/04 05:39:49;;;;;;;;;0.00;0.00;;;;;12.23;78.31;99650.63;5059482;28;60409;-72
2022/01/04 05:42:14;;;;;;;;;0.00;0.00;;;;;12.19;78.14;99641.84;5063449;28;58376;-74
2022/01/04 05:44:39;;;;;;;;;0.00;0.00;;;;;12.11;78.52;99627.88;5059198;28;52950;-71
2022/01/04 05:47:05;;;;;;;;;0.00;0.00;;;;;12.20;77.47;99640.13;5046109;28;52289;-72
2022/01/04 05:49:31;;;;;;;;;0.00;0.00;;;;;12.20;76.49;99637.47;5063339;28;46989;-72
2022/01/04 05:51:56;;;;;;;;;0.00;0.00;;;;;12.17;76.33;99642.78;5043763;28;62793;-73
2022/01/04 05:54:21;;;;;;;;;0.00;0.00;;;;;12.18;76.12;99645.41;5059945;28;45347;-72
2022/01/04 05:56:47;;;;;;;;;0.00;0.00;;;;;12.17;76.25;99638.38;5070512;28;54161;-72
2022/01/04 05:59:12;;;;;;;;;0.00;0.00;;;;;12.19;76.04;99640.97;5055020;28;45523;-71
2022/01/04 06:01:38;;;;;;;;;0.00;0.00;;;;;12.17;75.86;99641.00;5052336;28;59703;-70
2022/01/04 06:04:03;;;;;;;;;1.00;1.00;;;;;12.15;76.09;99623.44;5063652;28;49636;-70
2022/01/04 06:06:29;;;;;;;;;0.33;0.33;;;;;12.18;75.98;99629.53;5056336;28;45648;-73
2022/01/04 06:08:54;;;;;;;;;0.00;0.00;;;;;12.18;75.82;99636.59;5071112;28;61558;-72
2022/01/04 06:14:49;;;;;;;;;1.00;1.00;;;;;12.17;75.83;99634.84;5058955;28;45877;-72
2022/01/04 06:16:49;;;;;;;;;1.00;1.00;;;;;12.06;75.38;99627.94;5073233;28;46105;-69
2022/01/04 06:19:14;;;;;;;;;0.67;0.67;;;;;11.90;75.79;99641.41;5075476;28;58422;-68
2022/01/04 06:21:40;;;;;;;;;0.00;0.00;;;;;11.63;75.05;99630.25;5074887;28;59595;-69
2022/01/04 06:24:05;;;;;;;;;0.00;0.00;;;;;11.59;76.45;99654.97;5073931;28;53674;-71
2022/01/04 06:26:31;;;;;;;;;0.00;0.00;;;;;11.48;75.65;99656.88;5071669;28;45557;-69
2022/01/04 06:28:56;;;;;;;;;0.00;0.00;;;;;11.39;76.04;99672.84;5076299;28;45665;-69
2022/01/04 06:31:22;;;;;;;;;0.00;0.00;;;;;11.21;76.08;99669.50;5058286;28;45458;-69
2022/01/04 06:33:47;;;;;;;;;0.00;0.00;;;;;11.19;77.31;99679.22;5035903;28;45471;-69
2022/01/04 06:36:13;;;;;;;;;0.67;0.67;;;;;11.13;77.23;99667.81;5058301;28;50793;-69
2022/01/04 06:38:39;;;;;;;;;0.67;0.00;;;;;11.06;77.69;99668.78;5053678;28;47535;-70
2022/01/04 06:41:04;;;;;;;;;1.00;0.00;;;;;10.99;77.45;99671.47;5056790;28;51475;-69
2022/01/04 06:43:29;;;;;;;;;0.00;0.00;;;;;10.95;78.56;99677.66;5057806;28;58812;-69
2022/01/04 06:45:55;;;;;;;;;1.00;1.00;;;;;10.93;78.06;99689.16;5073372;28;51201;-69
2022/01/04 06:48:20;;;;;;;;;1.00;1.00;;;;;10.87;78.06;99690.09;5046215;28;50227;-69
2022/01/04 06:50:45;;;;;;;;;0.67;0.67;;;;;10.83;78.15;99693.63;5071357;28;53997;-69
2022/01/04 06:53:11;;;;;;;;;2.00;2.00;;;;;10.76;79.30;99686.66;5074987;28;53791;-71
2022/01/04 06:55:36;;;;;;;;;1.33;1.33;;;;;10.83;79.12;99708.59;5058398;28;53266;-70
2022/01/04 06:58:02;;;;;;;;;3.00;2.67;;;;;10.77;79.25;99706.03;5075100;28;59382;-70
2022/01/04 07:00:27;;;;;;;;;2.67;2.67;;;;;10.83;78.73;99714.75;5075802;28;45386;-68
2022/01/04 07:02:52;;;;;;;;;2.67;2.67;;;;;10.83;79.11;99719.16;5055802;28;45955;-70
2022/01/04 07:05:18;;;;;;;;;4.67;2.33;;;;;10.82;79.24;99722.69;5076272;28;48786;-69
2022/01/04 07:07:43;;;;;;;;;2.33;2.33;;;;;10.75;78.65;99704.25;5056694;28;45553;-69
2022/01/04 07:10:09;;;;;;;;;3.67;3.00;;;;;10.78;78.28;99706.00;5051380;27;45362;-69
2022/01/04 07:12:34;;;;;;;;;1.67;1.00;;;;;10.66;78.64;99698.19;5076871;27;45592;-69
2022/01/04 07:15:00;;;;;;;;;2.00;2.00;;;;;10.74;79.50;99720.09;5060705;27;45818;-70
2022/01/04 07:17:25;;;;;;;;;3.00;3.00;;;;;10.73;79.53;99718.34;5074259;27;49128;-69
2022/01/04 07:19:50;;;;;;;;;3.00;3.00;;;;;10.71;79.12;99712.22;5072461;28;45500;-70
2022/01/04 07:22:16;;;;;;;;;4.00;4.00;;;;;10.71;79.45;99712.22;5073240;28;55713;-69
2022/01/04 07:24:41;;;;;;;;;5.00;3.00;;;;;10.67;78.92;99710.50;5075608;28;45484;-69
2022/01/04 07:27:07;;;;;;;;;3.00;3.00;;;;;10.65;79.12;99705.22;5052702;28;45850;-71
2022/01/04 07:29:32;;;;;;;;;4.33;2.00;;;;;10.63;79.57;99704.34;5071175;28;46448;-69
2022/01/04 07:31:57;;;;;;;;;3.00;3.00;;;;;10.68;79.62;99714.88;5050726;28;45802;-69
2022/01/04 07:34:23;;;;;;;;;3.00;3.00;;;;;10.59;79.00;99699.97;5055796;28;55682;-69
2022/01/04 07:36:48;;;;;;;;;2.33;2.33;;;;;10.67;79.17;99723.69;5072149;28;52845;-69
2022/01/04 07:39:14;;;;;;;;;2.00;2.00;;;;;10.63;78.68;99732.50;5071998;28;45496;-69
2022/01/04 07:41:39;;;;;;;;;2.00;2.00;;;;;10.57;78.66;99729.91;5075461;28;45493;-71
2022/01/04 07:44:04;;;;;;;;;2.67;1.67;;;;;10.54;79.08;99736.06;5057531;28;49817;-70
2022/01/04 07:46:30;;;;;;;;;1.00;1.00;;;;;10.55;79.55;99745.78;5030481;28;62999;-69
2022/01/04 07:48:55;;;;;;;;;1.33;1.33;;;;;10.52;79.73;99744.91;5069387;28;45383;-69
2022/01/04 07:51:21;;;;;;;;;4.00;3.00;;;;;10.43;79.84;99741.41;5074497;28;52157;-69
2022/01/04 07:53:46;;;;;;;;;3.00;2.00;;;;;10.46;79.71;99749.34;5056864;28;53204;-69
2022/01/04 07:56:11;;;;;;;;;2.67;2.00;;;;;10.48;80.04;99752.81;5068277;28;45584;-70
2022/01/04 07:58:37;;;;;;;;;2.00;2.00;;;;;10.46;79.23;99751.97;5056230;28;45495;-70
2022/01/04 08:01:02;;;;;;;;;1.67;1.00;;;;;10.52;78.98;99753.69;5055997;28;53741;-71
2022/01/04 08:03:28;;;;;;;;;1.00;1.00;;;;;10.41;79.17;99753.75;5052620;28;45556;-74
2022/01/04 08:05:53;;;;;;;;;1.00;1.00;;;;;10.65;78.71;99787.06;5054387;28;45421;-74
2022/01/04 08:08:18;;;;;;;;;0.00;0.00;;;;;10.72;78.29;99799.31;5037225;28;45541;-74
2022/01/04 08:10:46;;;;;;;;;1.33;1.00;;;;;10.76;78.05;99794.91;5044656;28;45854;-74
2022/01/04 08:13:12;;;;;;;;;1.00;1.00;;;;;10.82;78.32;99801.91;5050687;28;45573;-74
2022/01/04 08:15:37;;;;;;;;;3.00;3.00;;;;;10.92;78.28;99825.63;5071787;27;45922;-75
2022/01/04 08:18:03;;;;;;;;;4.00;3.33;;;;;10.96;77.73;99829.97;5056971;28;45437;-74
2022/01/04 08:20:28;;;;;;;;;7.00;4.00;;;;;11.01;78.02;99828.16;5050119;28;45513;-75
2022/01/04 08:22:54;;;;;;;;;7.00;3.33;;;;;10.99;77.62;99806.19;5068366;27;45530;-74
2022/01/04 08:25:19;;;;;;;;;4.00;4.00;;;;;11.12;77.60;99816.66;5054036;28;46538;-74
2022/01/04 08:27:45;;;;;;;;;7.33;5.00;;;;;11.17;77.79;99812.22;5072386;27;45527;-73
2022/01/04 08:30:11;;;;;;;;;7.33;4.67;;;;;11.22;77.59;99802.47;5057202;28;45555;-72
2022/01/04 08:32:37;;;;;;;;;7.67;7.67;;;;;11.20;77.44;99791.06;5073099;27;45558;-72
2022/01/04 08:35:03;;;;;;;;;8.00;8.00;;;;;11.23;77.38;99801.59;5053219;28;47413;-73
2022/01/04 08:37:29;;;;;;;;;9.00;5.00;;;;;11.33;77.02;99819.13;5049534;28;45466;-73
2022/01/04 08:39:55;;;;;;;;;7.67;5.00;;;;;11.24;76.85;99814.81;5066915;28;45343;-73
2022/01/04 08:42:22;;;;;;;;;7.67;5.00;;;;;11.37;77.13;99830.56;5052163;28;45445;-74
2022/01/04 08:44:50;;;;;;;;;8.67;5.00;;;;;11.39;76.87;99827.00;5054279;28;45473;-73
2022/01/04 08:47:16;;;;;;;;;7.00;7.00;;;;;11.41;77.00;99816.44;5066470;27;45551;-73
2022/01/04 08:49:41;;;;;;;;;8.33;4.33;;;;;11.44;76.76;99830.47;5074323;28;47709;-73
2022/01/04 08:52:07;;;;;;;;;7.00;7.00;;;;;11.49;77.05;99839.25;5053162;28;50742;-74
2022/01/04 08:54:32;;;;;;;;;7.00;5.00;;;;;11.50;76.43;99845.41;5053407;28;46952;-73
2022/01/04 08:56:58;;;;;;;;;5.33;4.00;;;;;11.48;76.43;99837.50;5034417;27;45616;-72
2022/01/04 08:59:23;;;;;;;;;3.33;3.33;;;;;11.45;76.36;99834.91;5050962;27;45588;-74
2022/01/04 09:01:49;;;;;;;;;3.00;3.00;;;;;11.44;76.55;99824.31;5038384;28;45552;-73
2022/01/04 09:04:14;;;;;;;;;2.67;2.67;;;;;11.40;76.37;99822.59;5072012;27;46522;-73
2022/01/04 09:06:40;;;;;;;;;2.33;2.33;;;;;11.41;76.37;99819.06;5073380;28;57352;-73
2022/01/04 09:09:05;;;;;;;;;3.33;3.00;;;;;11.42;76.29;99837.56;5064307;28;45216;-73
2022/01/04 09:11:31;;;;;;;;;3.00;3.00;;;;;11.52;76.08;99857.75;5032278;27;47287;-74
2022/01/04 09:15:04;;;;;;;;;6.33;3.00;;;;;11.52;75.77;99856.88;5049977;28;46487;-75
2022/01/04 09:19:35;;;;;;;;;2.00;2.00;;;;;11.57;75.80;99857.72;5046726;28;45434;-73
2022/01/04 09:22:01;;;;;;;;;1.00;1.00;;;;;11.59;75.75;99852.41;5042246;28;45540;-74
2022/01/04 09:24:26;;;;;;;;;3.00;1.00;;;;;11.60;75.72;99846.22;5071964;27;56724;-73
2022/01/04 09:26:52;;;;;;;;;0.00;0.00;;;;;11.63;75.52;99844.44;5044778;28;45324;-73
2022/01/04 09:29:18;;;;;;;;;2.00;2.00;;;;;11.63;75.15;99836.50;5055470;28;45474;-73
2022/01/04 09:31:45;;;;;;;;;3.00;1.00;;;;;11.64;75.56;99825.03;5072404;27;45601;-75
2022/01/04 09:34:11;;;;;;;;;0.67;0.67;;;;;11.67;75.79;99810.91;5040533;27;45434;-74
2022/01/04 09:36:37;;;;;;;;;2.33;1.00;;;;;11.61;75.20;99819.78;5076324;27;49529;-74
2022/01/04 09:39:05;;;;;;;;;1.33;1.33;;;;;11.71;75.52;99839.06;5033435;28;45624;-74
2022/01/04 09:41:30;;;;;;;;;2.00;2.00;;;;;11.74;75.19;99842.56;5039041;28;45528;-74
2022/01/04 09:43:56;;;;;;;;;1.67;1.67;;;;;11.68;75.12;99828.53;5051511;28;63040;-74
2022/01/04 09:46:21;;;;;;;;;5.33;2.33;;;;;11.78;75.12;99854.88;5187485;22;46187;-72
2022/01/04 09:48:47;;;;;;;;;1.67;1.00;;;;;11.77;75.18;99850.47;5063919;27;45580;-73
2022/01/04 09:51:12;;;;;;;;;2.00;0.33;;;;;11.80;74.91;99857.47;5063852;27;51871;-74
2022/01/04 09:53:38;;;;;;;;;0.00;0.00;;;;;11.80;74.83;99858.34;5073279;27;46157;-73
2022/01/04 09:56:03;;;;;;;;;1.00;1.00;;;;;11.81;74.94;99872.44;5066096;27;46069;-73
2022/01/04 09:58:30;;;;;;;;;1.00;1.00;;;;;11.83;74.84;99878.66;5077122;27;45480;-72
2022/01/04 10:00:55;;;;;;;;;1.00;1.00;;;;;11.86;74.76;99877.75;5091515;27;46462;-74
2022/01/04 10:03:25;;;;;;;;;3.33;2.00;;;;;11.89;74.68;99869.78;5086340;27;45895;-72
2022/01/04 10:06:05;;;;;;;;;5.00;2.00;;;;;11.90;74.83;99877.69;5075714;27;45484;-73
2022/01/04 10:08:31;;;;;;;;;2.00;0.33;;;;;11.93;74.58;99876.78;5077440;27;45798;-73
2022/01/04 10:11:04;;;;;;;;;2.00;2.00;;;;;11.94;74.53;99887.38;5056107;27;45709;-74
2022/01/04 10:13:29;;;;;;;;;3.33;1.67;;;;;11.96;74.39;99887.34;5050543;27;46701;-73
2022/01/04 10:15:55;;;;;;;;;2.67;2.67;;;;;11.92;74.44;99875.03;5102010;27;45405;-74
2022/01/04 10:18:25;;;;;;;;;3.00;2.00;;;;;12.02;74.39;99895.22;5073634;27;53938;-73
2022/01/04 10:21:02;;;;;;;;;3.67;2.33;;;;;12.04;74.45;99899.63;5051257;27;45713;-72
2022/01/04 10:23:28;;;;;;;;;3.00;3.00;;;;;12.05;74.49;99905.78;5072792;27;45913;-72
2022/01/04 10:26:04;;;;;;;;;1.67;1.67;;;;;12.06;74.30;99897.81;5078776;27;54139;-72
2022/01/04 10:28:43;;;;;;;;;4.67;3.00;;;;;12.12;74.29;99878.34;5091423;27;45537;-72
2022/01/04 10:31:11;;;;;;;;;2.00;2.00;;;;;12.16;74.11;99868.63;5076267;27;45762;-72
2022/01/04 10:33:36;;;;;;;;;9.00;8.33;;;;;12.07;73.73;99854.59;5088459;27;45645;-73
2022/01/04 10:36:11;;;;;;;;;206.25;177.50;;;;;12.17;73.87;99859.78;5040333;27;58902;-72
2022/01/04 10:38:38;;;;;;;;;75.25;60.25;;;;;12.19;73.72;99874.75;5079125;27;45524;-72
2022/01/04 10:41:22;;;;;;;;;120.25;103.50;;;;;12.06;73.53;99849.31;5047269;27;45663;-72
2022/01/04 10:44:01;;;;;;;;;23.67;18.00;;;;;12.12;73.62;99866.91;5080476;27;45672;-72
2022/01/04 10:46:38;;;;;;;;;15.50;13.75;;;;;12.21;73.51;99882.69;5098618;27;45589;-72
2022/01/04 10:49:14;;;;;;;;;37.25;29.75;;;;;12.14;73.55;99849.22;5069029;27;47146;-73
2022/01/04 10:51:39;;;;;;;;;32.75;26.00;;;;;12.23;73.68;99867.66;5069971;27;45874;-72
2022/01/04 10:54:06;;;;;;;;;81.75;63.00;;;;;12.21;73.39;99867.69;5074511;27;62929;-71
2022/01/04 10:56:37;;;;;;;;;117.50;99.00;;;;;12.24;73.22;99882.63;5083463;27;45488;-72
2022/01/04 10:59:07;;;;;;;;;84.75;69.50;;;;;12.24;73.35;99872.03;5087471;27;45576;-71
2022/01/04 11:01:47;;;;;;;;;138.25;111.75;;;;;12.15;73.19;99854.53;5068148;27;45375;-72
2022/01/04 11:04:14;;;;;;;;;9.00;8.33;;;;;12.23;72.81;99875.59;5075623;27;45396;-71
2022/01/04 11:06:39;;;;;;;;;1.00;1.00;;;;;12.10;72.05;99851.03;5076796;27;45468;-71
2022/01/04 11:09:05;;;;;;;;;2.00;1.00;;;;;12.22;72.88;99869.44;5077839;27;49492;-73
2022/01/04 11:11:31;;;;;;;;;2.00;0.67;;;;;12.12;72.99;99858.97;5089922;27;45515;-71
2022/01/04 11:13:57;;;;;;;;;2.00;0.67;;;;;12.18;73.13;99858.88;5049800;28;46398;-71
2022/01/04 11:16:23;;;;;;;;;3.00;0.67;;;;;12.12;73.33;99829.84;5092197;27;45378;-72
2022/01/04 11:18:54;;;;;;;;;1.33;1.00;;;;;12.22;72.82;99852.66;5054024;28;45344;-71
2022/01/04 11:21:24;;;;;;;;;1.00;1.00;;;;;12.25;72.78;99856.16;5059967;27;45379;-72
2022/01/04 11:23:50;;;;;;;;;0.67;0.67;;;;;12.24;72.27;99878.22;5052898;28;45966;-72
2022/01/04 11:26:15;;;;;;;;;1.33;0.00;;;;;12.07;72.17;99854.59;5092108;27;45431;-71
2022/01/04 11:28:44;;;;;;;;;0.67;0.67;;;;;12.19;72.39;99890.63;5078690;27;45385;-72
2022/01/04 11:56:04;;;;;;;;;0.00;0.00;;;;;12.43;72.46;99864.78;5075312;27;45568;-72
2022/01/04 12:01:52;;;;;;;;;2.00;1.00;;;;;12.29;72.08;99847.28;5093206;27;45549;-73
2022/01/04 12:07:46;;;;;;;;;2.00;0.67;;;;;12.38;71.86;99856.88;5092848;27;45579;-72
2022/01/04 12:10:32;;;;;;;;;0.67;0.67;;;;;12.39;71.88;99841.88;5094635;27;45510;-72